createdAt,value
2019-01-30T00:01:24.952Z,10.57
2019-01-30T00:03:29.665Z,11.10
2019-01-30T00:05:33.673Z,11.10
2019-01-30T00:07:37.968Z,11.10
2019-01-30T00:09:42.153Z,14.40
2019-01-30T00:11:46.671Z,16.80
2019-01-30T00:13:50.536Z,10.77
2019-01-30T00:15:56.290Z,9.83
2019-01-30T00:18:00.898Z,10.20
2019-01-30T00:20:06.945Z,11.60
2019-01-30T00:22:11.335Z,9.20
2019-01-30T00:24:15.252Z,11.67
2019-01-30T00:26:19.353Z,10.73
2019-01-30T00:28:24.083Z,9.87
2019-01-30T00:30:29.161Z,11.23
2019-01-30T00:32:33.729Z,9.63
2019-01-30T00:34:38.028Z,10.27
2019-01-30T00:36:42.036Z,10.10
2019-01-30T00:38:47.108Z,10.40
2019-01-30T00:40:51.021Z,9.80
2019-01-30T00:42:55.202Z,10.80
2019-01-30T00:44:59.725Z,10.07
2019-01-30T00:47:04.301Z,10.50
2019-01-30T00:49:08.988Z,11.00
2019-01-30T00:51:18.404Z,10.03
2019-01-30T00:53:22.919Z,11.33
2019-01-30T00:55:27.156Z,9.63
2019-01-30T00:57:31.632Z,9.80
2019-01-30T00:59:35.513Z,10.40
2019-01-30T01:01:39.516Z,10.77
2019-01-30T01:03:43.569Z,9.43
2019-01-30T01:05:47.580Z,9.67
2019-01-30T01:07:52.299Z,9.40
2019-01-30T01:09:57.094Z,10.27
2019-01-30T01:12:01.014Z,10.40
2019-01-30T01:14:05.212Z,10.57
2019-01-30T01:16:09.832Z,9.57
2019-01-30T01:18:15.263Z,10.13
2019-01-30T01:20:19.970Z,9.37
2019-01-30T01:22:25.436Z,10.83
2019-01-30T01:24:29.378Z,10.70
2019-01-30T01:26:34.705Z,10.57
2019-01-30T01:28:39.180Z,8.47
2019-01-30T01:30:43.809Z,9.83
2019-01-30T01:32:49.003Z,8.30
2019-01-30T01:34:52.873Z,8.07
2019-01-30T01:36:57.299Z,9.40
2019-01-30T01:39:01.229Z,9.23
2019-01-30T01:41:05.455Z,8.73
2019-01-30T01:43:10.196Z,8.90
2019-01-30T01:45:19.580Z,9.10
2019-01-30T01:47:23.742Z,8.67
2019-01-30T01:49:28.230Z,7.67
2019-01-30T01:51:32.784Z,8.97
2019-01-30T01:53:37.039Z,9.60
2019-01-30T01:55:41.403Z,8.17
2019-01-30T01:57:45.629Z,9.47
2019-01-30T01:59:49.724Z,7.90
2019-01-30T02:01:53.905Z,9.33
2019-01-30T02:03:57.768Z,7.07
2019-01-30T02:06:02.547Z,8.20
2019-01-30T02:08:06.570Z,8.60
2019-01-30T02:10:13.264Z,11.13
2019-01-30T02:12:18.329Z,14.38
2019-01-30T02:14:23.152Z,9.97
2019-01-30T02:16:27.563Z,9.37
2019-01-30T02:18:31.495Z,7.80
2019-01-30T02:20:35.715Z,9.10
2019-01-30T02:22:39.636Z,7.87
2019-01-30T02:24:43.596Z,8.60
2019-01-30T02:26:48.068Z,8.37
2019-01-30T02:28:52.404Z,7.63
2019-01-30T02:30:56.972Z,8.83
2019-01-30T02:33:01.318Z,9.90
2019-01-30T02:35:06.089Z,8.33
2019-01-30T02:37:10.693Z,8.63
2019-01-30T02:39:14.926Z,8.80
2019-01-30T02:41:19.572Z,7.63
2019-01-30T02:43:23.657Z,8.30
2019-01-30T02:45:28.638Z,8.63
2019-01-30T02:47:33.353Z,8.77
2019-01-30T02:49:37.811Z,8.67
2019-01-30T02:51:42.532Z,8.10
2019-01-30T02:53:47.176Z,8.03
2019-01-30T02:55:51.209Z,8.03
2019-01-30T02:57:55.777Z,8.40
2019-01-30T02:59:59.941Z,9.00
2019-01-30T03:02:21.514Z,7.40
2019-01-30T03:04:25.840Z,7.73
2019-01-30T03:06:29.761Z,9.00
2019-01-30T03:08:33.715Z,10.53
2019-01-30T03:10:38.184Z,12.77
2019-01-30T03:12:42.507Z,12.53
2019-01-30T03:14:47.296Z,12.60
2019-01-30T03:16:52.116Z,12.63
2019-01-30T03:18:56.288Z,12.50
2019-01-30T03:21:00.681Z,12.27
2019-01-30T03:23:05.377Z,13.37
2019-01-30T03:25:10.857Z,12.33
2019-01-30T03:27:14.749Z,12.60
2019-01-30T03:29:19.686Z,12.20
2019-01-30T03:31:24.650Z,12.67
2019-01-30T03:33:29.416Z,16.63
2019-01-30T03:35:34.256Z,13.97
2019-01-30T03:37:38.941Z,12.27
2019-01-30T03:39:43.569Z,12.83
2019-01-30T03:41:47.833Z,12.90
2019-01-30T03:43:52.643Z,12.43
2019-01-30T03:45:57.347Z,13.50
2019-01-30T03:48:01.867Z,13.90
2019-01-30T03:50:07.850Z,12.80
2019-01-30T03:52:12.057Z,13.23
2019-01-30T03:54:16.952Z,13.20
2019-01-30T03:56:21.145Z,13.37
2019-01-30T03:58:25.873Z,14.13
2019-01-30T04:00:30.364Z,13.40
2019-01-30T04:02:34.576Z,13.32
2019-01-30T04:04:39.854Z,13.10
2019-01-30T04:06:43.989Z,13.35
2019-01-30T04:08:48.701Z,10.40
2019-01-30T04:10:52.708Z,10.70
2019-01-30T04:12:56.925Z,7.87
2019-01-30T04:15:01.222Z,9.17
2019-01-30T04:17:06.363Z,9.87
2019-01-30T04:19:10.852Z,8.73
2019-01-30T04:21:15.349Z,10.47
2019-01-30T04:23:19.741Z,8.17
2019-01-30T04:25:24.005Z,10.83
2019-01-30T04:27:28.517Z,9.80
2019-01-30T04:29:33.564Z,14.77
2019-01-30T04:31:38.691Z,12.90
2019-01-30T04:33:43.182Z,14.43
2019-01-30T04:35:47.372Z,13.70
2019-01-30T04:37:52.190Z,10.07
2019-01-30T04:39:56.527Z,13.27
2019-01-30T04:42:01.180Z,15.20
2019-01-30T04:44:05.623Z,10.80
2019-01-30T04:46:10.140Z,9.30
2019-01-30T04:48:14.093Z,9.60
2019-01-30T04:50:19.662Z,9.70
2019-01-30T04:52:24.108Z,9.00
2019-01-30T04:54:28.813Z,8.93
2019-01-30T04:56:33.368Z,9.27
2019-01-30T04:58:38.225Z,7.87
2019-01-30T05:00:43.409Z,11.90
2019-01-30T05:02:48.016Z,9.77
2019-01-30T05:04:52.808Z,7.57
2019-01-30T05:06:57.518Z,10.07
2019-01-30T05:09:02.105Z,10.27
2019-01-30T05:11:06.989Z,8.87
2019-01-30T05:13:11.142Z,9.33
2019-01-30T05:15:17.058Z,9.10
2019-01-30T05:17:20.989Z,10.30
2019-01-30T05:19:24.997Z,9.40
2019-01-30T05:21:29.408Z,7.87
2019-01-30T05:23:34.619Z,9.97
2019-01-30T05:25:39.001Z,9.50
2019-01-30T05:27:43.006Z,8.67
2019-01-30T05:29:47.584Z,10.40
2019-01-30T05:32:00.872Z,8.80
2019-01-30T05:33:58.592Z,9.40
2019-01-30T05:36:02.824Z,9.73
2019-01-30T05:38:07.305Z,9.23
2019-01-30T05:40:14.356Z,9.20
2019-01-30T05:42:18.918Z,8.50
2019-01-30T05:44:22.848Z,8.50
2019-01-30T05:46:28.109Z,8.87
2019-01-30T05:48:32.772Z,9.20
2019-01-30T05:50:37.118Z,8.77
2019-01-30T05:52:42.268Z,9.47
2019-01-30T05:54:46.504Z,8.80
2019-01-30T05:56:50.780Z,8.27
2019-01-30T05:58:54.664Z,8.70
2019-01-30T06:01:02.366Z,8.60
2019-01-30T06:03:06.873Z,8.87
2019-01-30T06:05:11.532Z,9.30
2019-01-30T06:07:15.782Z,8.43
2019-01-30T06:09:20.529Z,8.87
2019-01-30T06:11:25.533Z,8.43
2019-01-30T06:13:30.081Z,10.20
2019-01-30T06:15:34.736Z,9.00
2019-01-30T06:17:39.482Z,8.47
2019-01-30T06:19:43.708Z,8.60
2019-01-30T06:21:48.036Z,8.40
2019-01-30T06:23:52.202Z,9.50
2019-01-30T06:25:56.772Z,8.70
2019-01-30T06:28:00.969Z,9.17
2019-01-30T06:30:06.156Z,8.50
2019-01-30T06:32:10.548Z,9.43
2019-01-30T06:34:15.278Z,7.80
2019-01-30T06:36:19.524Z,9.00
2019-01-30T06:38:23.704Z,8.30
2019-01-30T06:40:31.288Z,8.07
2019-01-30T06:42:36.504Z,6.90
2019-01-30T06:44:40.582Z,11.77
2019-01-30T06:46:44.639Z,8.47
2019-01-30T06:48:49.188Z,8.53
2019-01-30T06:50:53.420Z,9.50
2019-01-30T06:52:57.560Z,8.17
2019-01-30T06:55:01.845Z,9.70
2019-01-30T06:57:06.583Z,9.67
2019-01-30T06:59:11.841Z,7.90
2019-01-30T07:01:16.844Z,8.10
2019-01-30T07:03:21.463Z,8.50
2019-01-30T07:05:26.607Z,9.50
2019-01-30T07:07:30.809Z,8.13
2019-01-30T07:09:34.758Z,8.73
2019-01-30T07:11:39.541Z,8.40
2019-01-30T07:13:44.754Z,7.67
2019-01-30T07:15:49.638Z,9.50
2019-01-30T07:17:54.724Z,8.33
2019-01-30T07:19:58.705Z,8.30
2019-01-30T07:22:03.884Z,7.83
2019-01-30T07:24:08.406Z,9.50
2019-01-30T07:26:12.925Z,8.33
2019-01-30T07:28:17.094Z,9.00
2019-01-30T07:30:29.672Z,10.37
2019-01-30T07:32:42.101Z,8.57
2019-01-30T07:34:40.690Z,9.50
2019-01-30T07:36:44.888Z,7.80
2019-01-30T07:38:49.486Z,9.50
2019-01-30T07:40:53.662Z,8.87
2019-01-30T07:42:58.844Z,7.97
2019-01-30T07:45:02.847Z,9.23
2019-01-30T07:47:07.006Z,9.30
2019-01-30T07:49:11.033Z,8.10
2019-01-30T07:51:15.964Z,9.00
2019-01-30T07:53:20.002Z,9.60
2019-01-30T07:55:23.962Z,8.77
2019-01-30T07:57:29.002Z,8.93
2019-01-30T07:59:33.174Z,9.50
2019-01-30T08:01:37.101Z,9.00
2019-01-30T08:03:41.461Z,8.10
2019-01-30T08:05:45.788Z,8.47
2019-01-30T08:07:50.332Z,9.13
2019-01-30T08:09:54.236Z,8.40
2019-01-30T08:11:58.198Z,8.80
2019-01-30T08:14:02.434Z,9.17
2019-01-30T08:16:17.706Z,8.67
2019-01-30T08:18:21.686Z,8.97
2019-01-30T08:20:25.822Z,8.20
2019-01-30T08:22:30.823Z,7.40
2019-01-30T08:24:41.872Z,9.03
2019-01-30T08:26:46.154Z,9.03
2019-01-30T08:28:50.845Z,8.50
2019-01-30T08:30:55.205Z,8.90
2019-01-30T08:33:04.650Z,8.77
2019-01-30T08:35:08.542Z,8.53
2019-01-30T08:37:12.748Z,8.70
2019-01-30T08:39:17.982Z,7.73
2019-01-30T08:41:22.764Z,6.97
2019-01-30T08:43:27.857Z,7.40
2019-01-30T08:45:33.912Z,7.63
2019-01-30T08:47:37.964Z,6.83
2019-01-30T08:49:43.053Z,6.80
2019-01-30T08:51:47.265Z,8.47
2019-01-30T08:53:51.367Z,8.87
2019-01-30T08:55:55.443Z,8.93
2019-01-30T08:57:59.848Z,9.00
2019-01-30T09:00:05.469Z,6.60
2019-01-30T09:02:10.181Z,7.37
2019-01-30T09:04:14.320Z,7.60
2019-01-30T09:06:22.072Z,7.50
2019-01-30T09:08:26.456Z,9.00
2019-01-30T09:10:32.589Z,7.67
2019-01-30T09:12:36.597Z,6.67
2019-01-30T09:14:40.786Z,6.53
2019-01-30T09:16:45.336Z,6.60
2019-01-30T09:18:49.477Z,7.10
2019-01-30T09:20:53.358Z,7.30
2019-01-30T09:22:57.591Z,7.30
2019-01-30T09:25:02.143Z,6.63
2019-01-30T09:27:06.956Z,7.87
2019-01-30T09:29:12.225Z,7.90
2019-01-30T09:31:17.066Z,6.37
2019-01-30T09:33:25.926Z,6.70
2019-01-30T09:35:27.087Z,5.90
2019-01-30T09:37:31.637Z,6.37
2019-01-30T09:39:36.775Z,5.80
2019-01-30T09:41:41.164Z,6.53
2019-01-30T09:43:45.649Z,6.53
2019-01-30T09:45:49.878Z,7.03
2019-01-30T09:47:53.964Z,6.07
2019-01-30T09:49:58.824Z,5.80
2019-01-30T09:52:03.140Z,6.20
2019-01-30T09:54:19.691Z,5.30
2019-01-30T09:56:35.944Z,6.63
2019-01-30T09:58:51.487Z,6.33
2019-01-30T10:01:07.686Z,5.87
2019-01-30T10:03:23.788Z,5.93
2019-01-30T10:05:40.272Z,5.67
2019-01-30T10:07:55.789Z,4.87
2019-01-30T10:10:11.404Z,6.50
2019-01-30T10:12:27.721Z,5.33
2019-01-30T10:14:43.444Z,6.33
2019-01-30T10:16:59.621Z,5.17
2019-01-30T10:19:15.510Z,4.90
2019-01-30T10:21:30.217Z,6.20
2019-01-30T10:23:53.552Z,6.97
2019-01-30T10:26:16.706Z,5.00
2019-01-30T10:28:40.338Z,5.10
2019-01-30T10:31:03.919Z,5.67
2019-01-30T10:35:56.236Z,4.97
2019-01-30T10:41:04.913Z,5.27
2019-01-30T10:43:28.142Z,4.37
2019-01-30T10:45:51.427Z,4.60
2019-01-30T10:48:15.097Z,3.80
2019-01-30T10:50:38.831Z,5.07
2019-01-30T10:55:37.566Z,4.43
2019-01-30T10:57:53.314Z,4.97
2019-01-30T11:00:10.585Z,4.10
2019-01-30T11:02:26.265Z,5.57
2019-01-30T11:04:41.677Z,5.03
2019-01-30T11:06:57.548Z,4.60
2019-01-30T11:09:13.342Z,4.20
2019-01-30T11:11:29.206Z,4.70
2019-01-30T11:13:44.577Z,3.90
2019-01-30T11:16:01.284Z,5.37
2019-01-30T11:18:17.489Z,5.03
2019-01-30T11:20:33.801Z,5.30
2019-01-30T11:22:49.458Z,4.63
2019-01-30T11:25:05.801Z,4.63
2019-01-30T11:27:22.087Z,3.70
2019-01-30T11:29:38.140Z,5.70
2019-01-30T11:31:54.379Z,3.43
2019-01-30T11:34:09.925Z,4.50
2019-01-30T11:36:25.388Z,3.73
2019-01-30T11:38:42.113Z,4.53
2019-01-30T11:40:58.300Z,3.30
2019-01-30T11:43:13.673Z,3.97
2019-01-30T11:45:30.245Z,4.10
2019-01-30T11:47:46.961Z,3.50
2019-01-30T11:50:03.328Z,4.40
2019-01-30T11:52:19.661Z,4.50
2019-01-30T11:54:38.900Z,3.70
2019-01-30T11:56:52.643Z,4.20
2019-01-30T11:59:08.481Z,4.30
2019-01-30T12:01:24.722Z,3.43
2019-01-30T12:03:40.909Z,3.30
2019-01-30T12:05:56.637Z,3.90
2019-01-30T12:08:12.370Z,3.90
2019-01-30T12:10:28.485Z,3.70
2019-01-30T12:12:45.082Z,3.90
2019-01-30T12:15:00.441Z,4.30
2019-01-30T12:17:16.393Z,3.70
2019-01-30T12:19:32.053Z,3.67
2019-01-30T12:21:48.693Z,4.03
2019-01-30T12:24:05.023Z,3.67
2019-01-30T12:26:21.072Z,3.07
2019-01-30T12:28:37.499Z,4.23
2019-01-30T12:30:53.620Z,3.70
2019-01-30T12:33:09.312Z,2.97
2019-01-30T12:35:23.550Z,3.03
2019-01-30T12:37:47.246Z,4.00
2019-01-30T12:43:01.515Z,3.27
2019-01-30T12:45:26.033Z,3.17
2019-01-30T12:47:49.432Z,3.87
2019-01-30T12:50:12.609Z,3.00
2019-01-30T12:52:35.786Z,1.97
2019-01-30T12:54:58.835Z,2.27
2019-01-30T12:57:14.664Z,3.10
2019-01-30T12:59:30.856Z,2.80
2019-01-30T13:01:46.309Z,3.40
2019-01-30T13:04:02.525Z,2.50
2019-01-30T13:06:18.390Z,2.80
2019-01-30T13:08:34.176Z,3.00
2019-01-30T13:10:50.782Z,2.77
2019-01-30T13:13:07.548Z,2.30
2019-01-30T13:15:23.485Z,2.90
2019-01-30T13:17:39.356Z,2.43
2019-01-30T13:19:55.011Z,2.53
2019-01-30T13:22:10.505Z,2.37
2019-01-30T13:24:27.027Z,1.93
2019-01-30T13:26:43.059Z,2.60
2019-01-30T13:28:58.380Z,2.17
2019-01-30T13:31:14.877Z,2.27
2019-01-30T13:33:30.368Z,2.10
2019-01-30T13:35:46.683Z,2.50
2019-01-30T13:38:02.650Z,2.50
2019-01-30T13:40:18.514Z,1.63
2019-01-30T13:42:34.809Z,2.00
2019-01-30T13:44:50.792Z,2.60
2019-01-30T13:47:07.163Z,2.20
2019-01-30T13:49:23.246Z,2.70
2019-01-30T13:51:38.763Z,1.20
2019-01-30T13:53:54.922Z,2.37
2019-01-30T13:56:10.492Z,2.83
2019-01-30T13:58:26.051Z,1.60
2019-01-30T14:00:42.300Z,2.23
2019-01-30T14:02:58.221Z,2.23
2019-01-30T14:05:14.318Z,1.90
2019-01-30T14:07:30.385Z,1.70
2019-01-30T14:09:46.976Z,2.20
2019-01-30T14:12:02.816Z,2.30
2019-01-30T14:14:19.540Z,2.60
2019-01-30T14:16:35.869Z,2.47
2019-01-30T14:18:52.267Z,2.13
2019-01-30T14:21:08.868Z,2.07
2019-01-30T14:23:24.962Z,2.40
2019-01-30T14:25:41.250Z,2.43
2019-01-30T14:27:57.293Z,2.30
2019-01-30T14:30:14.037Z,2.00
2019-01-30T14:32:30.154Z,2.33
2019-01-30T14:34:45.846Z,2.30
2019-01-30T14:37:02.002Z,2.20
2019-01-30T14:39:17.961Z,2.07
2019-01-30T14:41:32.547Z,1.90
2019-01-30T14:43:56.140Z,1.70
2019-01-30T14:46:19.316Z,1.80
2019-01-30T14:48:43.181Z,2.37
2019-01-30T14:51:25.935Z,2.23
2019-01-30T14:53:49.628Z,2.37
2019-01-30T14:56:12.745Z,2.30
2019-01-30T14:58:35.885Z,1.60
2019-01-30T15:00:52.021Z,2.37
2019-01-30T15:03:08.078Z,2.30
2019-01-30T15:05:24.164Z,2.30
2019-01-30T15:07:40.153Z,2.80
2019-01-30T15:09:56.428Z,2.37
2019-01-30T15:12:11.937Z,2.10
2019-01-30T15:14:28.045Z,2.20
2019-01-30T15:16:43.888Z,2.03
2019-01-30T15:19:00.485Z,2.57
2019-01-30T15:21:16.504Z,2.30
2019-01-30T15:23:32.948Z,2.80
2019-01-30T15:25:49.021Z,2.53
2019-01-30T15:28:05.239Z,3.63
2019-01-30T15:30:20.689Z,2.73
2019-01-30T15:32:36.313Z,2.97
2019-01-30T15:34:52.724Z,2.70
2019-01-30T15:37:09.137Z,2.73
2019-01-30T15:39:25.136Z,3.90
2019-01-30T15:41:40.622Z,3.10
2019-01-30T15:43:57.022Z,3.30
2019-01-30T15:46:12.661Z,3.50
2019-01-30T15:48:29.063Z,2.87
2019-01-30T15:50:44.825Z,4.13
2019-01-30T15:53:00.187Z,3.33
2019-01-30T15:55:16.364Z,3.10
2019-01-30T15:57:32.893Z,3.40
2019-01-30T15:59:49.304Z,4.17
2019-01-30T16:02:04.701Z,3.97
2019-01-30T16:04:21.065Z,3.20
2019-01-30T16:06:37.874Z,3.70
2019-01-30T16:08:54.406Z,3.60
2019-01-30T16:11:10.590Z,3.27
2019-01-30T16:13:26.330Z,3.13
2019-01-30T16:15:42.336Z,3.87
2019-01-30T16:17:57.974Z,3.23
2019-01-30T16:20:14.293Z,4.27
2019-01-30T16:22:30.256Z,4.00
2019-01-30T16:24:46.089Z,3.57
2019-01-30T16:27:00.379Z,3.93
2019-01-30T16:29:24.085Z,3.97
2019-01-30T16:31:47.467Z,3.83
2019-01-30T16:34:11.253Z,3.50
2019-01-30T16:39:19.230Z,3.60
2019-01-30T16:41:42.588Z,3.80
2019-01-30T16:44:05.925Z,4.50
2019-01-30T16:46:30.149Z,4.00
2019-01-30T16:48:53.826Z,4.43
2019-01-30T16:54:01.415Z,3.70
2019-01-30T16:56:24.610Z,4.60
2019-01-30T16:58:47.913Z,4.10
2019-01-30T17:04:01.445Z,4.20
2019-01-30T17:06:25.020Z,4.23
2019-01-30T17:08:48.172Z,4.97
2019-01-30T17:13:41.349Z,4.93
2019-01-30T17:16:04.608Z,4.03
2019-01-30T17:18:27.940Z,4.53
2019-01-30T17:20:51.074Z,4.70
2019-01-30T17:23:14.419Z,5.40
2019-01-30T17:25:38.001Z,4.73
2019-01-30T17:28:20.715Z,4.23
2019-01-30T17:30:45.577Z,4.33
2019-01-30T17:33:08.888Z,5.13
2019-01-30T17:35:33.918Z,5.03
2019-01-30T17:40:27.004Z,4.17
2019-01-30T17:42:50.141Z,4.00
2019-01-30T17:45:13.325Z,4.40
2019-01-30T17:53:12.054Z,3.20
2019-01-30T17:58:06.218Z,4.37
2019-01-30T18:08:33.096Z,6.10
2019-01-30T18:10:46.132Z,5.73
2019-01-30T18:15:40.546Z,4.83
2019-01-30T18:18:04.128Z,5.80
2019-01-30T18:20:27.713Z,4.40
2019-01-30T18:22:51.478Z,5.03
2019-01-30T18:25:15.720Z,5.30
2019-01-30T18:27:38.785Z,4.80
2019-01-30T18:30:01.896Z,5.97
2019-01-30T18:32:26.170Z,5.30
2019-01-30T18:34:49.969Z,4.93
2019-01-30T18:37:13.049Z,6.00
2019-01-30T18:39:55.758Z,5.93
2019-01-30T18:42:19.189Z,6.60
2019-01-30T18:44:42.904Z,4.97
2019-01-30T18:49:55.463Z,7.53
2019-01-30T18:52:19.733Z,8.93
2019-01-30T18:54:43.065Z,6.63
2019-01-30T18:57:06.698Z,6.10
2019-01-30T18:59:30.171Z,8.40
2019-01-30T19:04:16.007Z,7.50
2019-01-30T19:06:31.745Z,8.40
2019-01-30T19:08:47.893Z,9.27
2019-01-30T19:11:03.241Z,9.33
2019-01-30T19:13:18.549Z,8.67
2019-01-30T19:15:34.979Z,9.13
2019-01-30T19:17:51.369Z,8.10
2019-01-30T19:20:07.213Z,9.20
2019-01-30T19:22:23.163Z,9.27
2019-01-30T19:24:39.324Z,10.17
2019-01-30T19:26:55.723Z,10.43
2019-01-30T19:29:12.076Z,7.93
2019-01-30T19:31:27.538Z,8.90
2019-01-30T19:36:01.508Z,9.93
2019-01-30T19:38:17.187Z,11.30
2019-01-30T19:40:33.261Z,10.47
2019-01-30T19:42:49.394Z,10.40
2019-01-30T19:45:05.718Z,9.27
2019-01-30T19:47:21.513Z,10.97
2019-01-30T19:49:38.395Z,12.63
2019-01-30T19:51:54.790Z,10.20
2019-01-30T19:54:10.847Z,10.90
2019-01-30T19:56:26.215Z,10.17
2019-01-30T19:58:42.296Z,11.83
2019-01-30T20:00:58.786Z,11.03
2019-01-30T20:03:15.327Z,10.80
2019-01-30T20:05:31.383Z,12.03
2019-01-30T20:07:47.110Z,11.27
2019-01-30T20:10:03.413Z,11.70
2019-01-30T20:12:19.760Z,11.57
2019-01-30T20:14:36.598Z,11.60
2019-01-30T20:16:52.508Z,11.20
2019-01-30T20:19:08.864Z,11.43
2019-01-30T20:21:24.595Z,10.93
2019-01-30T20:23:41.009Z,11.10
2019-01-30T20:25:56.703Z,11.90
2019-01-30T20:28:12.072Z,12.27
2019-01-30T20:30:27.520Z,11.03
2019-01-30T20:35:01.134Z,9.13
2019-01-30T20:37:25.815Z,11.50
2019-01-30T20:39:34.645Z,12.60
2019-01-30T20:41:53.050Z,9.00
2019-01-30T20:44:08.629Z,11.40
2019-01-30T20:46:24.528Z,10.10
2019-01-30T20:48:46.949Z,10.73
2019-01-30T20:50:58.798Z,12.30
2019-01-30T20:53:14.499Z,11.77
2019-01-30T20:55:30.982Z,12.97
2019-01-30T20:57:46.687Z,10.47
2019-01-30T21:00:02.834Z,10.80
2019-01-30T21:02:18.486Z,11.80
2019-01-30T21:04:34.618Z,7.37
2019-01-30T21:06:50.458Z,10.37
2019-01-30T21:09:06.968Z,10.43
2019-01-30T21:11:22.684Z,10.40
2019-01-30T21:13:38.614Z,10.27
2019-01-30T21:15:54.557Z,10.97
2019-01-30T21:18:10.937Z,10.93
2019-01-30T21:20:26.959Z,8.83
2019-01-30T21:22:44.336Z,10.77
2019-01-30T21:25:00.438Z,8.47
2019-01-30T21:27:16.757Z,10.70
2019-01-30T21:29:33.071Z,9.17
2019-01-30T21:31:49.037Z,9.70
2019-01-30T21:34:04.771Z,10.03
2019-01-30T21:36:20.253Z,9.33
2019-01-30T21:38:36.865Z,9.90
2019-01-30T21:40:52.437Z,10.50
2019-01-30T21:43:08.531Z,8.63
2019-01-30T21:45:24.053Z,9.17
2019-01-30T21:47:39.481Z,10.10
2019-01-30T21:49:54.794Z,9.70
2019-01-30T21:52:10.336Z,10.20
2019-01-30T21:54:26.233Z,9.10
2019-01-30T21:56:42.248Z,10.90
2019-01-30T21:58:58.010Z,10.63
2019-01-30T22:01:13.587Z,9.97
2019-01-30T22:03:29.673Z,9.63
2019-01-30T22:05:45.180Z,9.87
2019-01-30T22:08:01.502Z,9.53
2019-01-30T22:10:17.788Z,9.30
2019-01-30T22:12:33.144Z,8.90
2019-01-30T22:14:48.866Z,10.23
2019-01-30T22:17:05.130Z,9.20
2019-01-30T22:19:21.503Z,11.90
2019-01-30T22:21:37.648Z,10.30
2019-01-30T22:23:53.243Z,10.03
2019-01-30T22:26:09.436Z,9.30
2019-01-30T22:28:24.839Z,10.17
2019-01-30T22:30:40.661Z,11.10
2019-01-30T22:32:56.797Z,10.77
2019-01-30T22:35:13.369Z,10.87
2019-01-30T22:37:29.123Z,10.80
2019-01-30T22:39:44.651Z,9.90
2019-01-30T22:42:02.492Z,9.30
2019-01-30T22:44:18.169Z,10.20
2019-01-30T22:46:33.703Z,9.40
2019-01-30T22:48:49.650Z,8.00
2019-01-30T22:51:06.080Z,9.50
2019-01-30T22:53:22.131Z,10.33
2019-01-30T22:55:38.265Z,10.23
2019-01-30T22:57:54.345Z,10.60
2019-01-30T23:00:10.586Z,10.20
2019-01-30T23:02:26.325Z,9.70
2019-01-30T23:05:09.150Z,10.80
2019-01-30T23:07:51.864Z,7.30
2019-01-30T23:10:34.279Z,12.17
2019-01-30T23:13:16.615Z,8.40
2019-01-30T23:16:02.649Z,10.90
2019-01-30T23:18:44.924Z,9.10
2019-01-30T23:21:10.957Z,10.73
2019-01-30T23:23:53.695Z,11.07
2019-01-30T23:26:36.213Z,11.10
2019-01-30T23:29:18.488Z,10.50
2019-01-30T23:34:21.548Z,9.90
2019-01-30T23:39:23.125Z,9.97
2019-01-30T23:41:53.216Z,10.83
2019-01-30T23:44:09.292Z,10.47
2019-01-30T23:46:25.592Z,9.53
2019-01-30T23:48:41.579Z,10.47
2019-01-30T23:50:57.416Z,10.63
2019-01-30T23:53:13.249Z,10.40
2019-01-30T23:55:29.938Z,9.40
2019-01-30T23:57:45.849Z,9.57
